sensor_id;sensor_type;location;lat;lon;timestamp;P1;durP1;ratioP1;P2;durP2;ratioP2
16531;SDS011;66872;63.142;14.482;2023-11-19T00:02:18;0.80;;;0.80;;
16531;SDS011;66872;63.142;14.482;2023-11-19T00:04:44;1.00;;;0.90;;
16531;SDS011;66872;63.142;14.482;2023-11-19T00:07:10;0.90;;;0.90;;
16531;SDS011;66872;63.142;14.482;2023-11-19T00:09:38;0.70;;;0.70;;
16531;SDS011;66872;63.142;14.482;2023-11-19T00:12:05;0.63;;;0.63;;
16531;SDS011;66872;63.142;14.482;2023-11-19T00:14:32;0.50;;;0.50;;
16531;SDS011;66872;63.142;14.482;2023-11-19T00:16:58;0.80;;;0.80;;
16531;SDS011;66872;63.142;14.482;2023-11-19T00:19:24;0.80;;;0.80;;
16531;SDS011;66872;63.142;14.482;2023-11-19T00:21:49;0.80;;;0.80;;
16531;SDS011;66872;63.142;14.482;2023-11-19T00:24:15;0.57;;;0.57;;
16531;SDS011;66872;63.142;14.482;2023-11-19T00:26:42;0.77;;;0.77;;
16531;SDS011;66872;63.142;14.482;2023-11-19T00:29:08;0.60;;;0.60;;
16531;SDS011;66872;63.142;14.482;2023-11-19T00:31:34;0.80;;;0.80;;
16531;SDS011;66872;63.142;14.482;2023-11-19T00:34:00;0.90;;;0.90;;
16531;SDS011;66872;63.142;14.482;2023-11-19T00:36:26;0.73;;;0.73;;
16531;SDS011;66872;63.142;14.482;2023-11-19T00:38:53;0.90;;;0.90;;
16531;SDS011;66872;63.142;14.482;2023-11-19T00:41:19;0.77;;;0.77;;
16531;SDS011;66872;63.142;14.482;2023-11-19T00:43:45;0.70;;;0.70;;
16531;SDS011;66872;63.142;14.482;2023-11-19T00:46:10;0.90;;;0.90;;
16531;SDS011;66872;63.142;14.482;2023-11-19T00:48:36;0.80;;;0.70;;
16531;SDS011;66872;63.142;14.482;2023-11-19T00:51:02;0.90;;;0.90;;
16531;SDS011;66872;63.142;14.482;2023-11-19T00:53:31;0.73;;;0.73;;
16531;SDS011;66872;63.142;14.482;2023-11-19T00:55:58;0.70;;;0.70;;
16531;SDS011;66872;63.142;14.482;2023-11-19T00:58:24;0.50;;;0.50;;
16531;SDS011;66872;63.142;14.482;2023-11-19T01:00:50;0.70;;;0.70;;
16531;SDS011;66872;63.142;14.482;2023-11-19T01:03:16;0.80;;;0.80;;
16531;SDS011;66872;63.142;14.482;2023-11-19T01:05:42;0.60;;;0.60;;
16531;SDS011;66872;63.142;14.482;2023-11-19T01:08:08;0.77;;;0.77;;
16531;SDS011;66872;63.142;14.482;2023-11-19T01:10:36;0.70;;;0.70;;
16531;SDS011;66872;63.142;14.482;2023-11-19T01:13:02;0.90;;;0.90;;
16531;SDS011;66872;63.142;14.482;2023-11-19T01:15:30;0.80;;;0.80;;
16531;SDS011;66872;63.142;14.482;2023-11-19T01:17:56;0.70;;;0.70;;
16531;SDS011;66872;63.142;14.482;2023-11-19T01:20:22;0.73;;;0.73;;
16531;SDS011;66872;63.142;14.482;2023-11-19T01:22:48;0.97;;;0.87;;
16531;SDS011;66872;63.142;14.482;2023-11-19T01:25:14;0.90;;;0.90;;
16531;SDS011;66872;63.142;14.482;2023-11-19T01:27:40;0.73;;;0.73;;
16531;SDS011;66872;63.142;14.482;2023-11-19T01:30:06;0.77;;;0.77;;
16531;SDS011;66872;63.142;14.482;2023-11-19T01:32:34;0.70;;;0.70;;
16531;SDS011;66872;63.142;14.482;2023-11-19T01:35:01;0.80;;;0.80;;
16531;SDS011;66872;63.142;14.482;2023-11-19T01:37:28;0.80;;;0.80;;
16531;SDS011;66872;63.142;14.482;2023-11-19T01:39:54;0.77;;;0.77;;
16531;SDS011;66872;63.142;14.482;2023-11-19T01:42:19;0.70;;;0.70;;
16531;SDS011;66872;63.142;14.482;2023-11-19T01:44:55;0.60;;;0.60;;
16531;SDS011;66872;63.142;14.482;2023-11-19T01:47:25;0.80;;;0.80;;
16531;SDS011;66872;63.142;14.482;2023-11-19T01:49:52;0.93;;;0.93;;
16531;SDS011;66872;63.142;14.482;2023-11-19T01:52:18;0.67;;;0.67;;
16531;SDS011;66872;63.142;14.482;2023-11-19T01:54:45;0.80;;;0.80;;
16531;SDS011;66872;63.142;14.482;2023-11-19T01:57:12;0.80;;;0.80;;
16531;SDS011;66872;63.142;14.482;2023-11-19T01:59:39;0.70;;;0.70;;
16531;SDS011;66872;63.142;14.482;2023-11-19T02:02:05;0.80;;;0.80;;
16531;SDS011;66872;63.142;14.482;2023-11-19T02:04:31;0.70;;;0.70;;
16531;SDS011;66872;63.142;14.482;2023-11-19T02:06:58;0.80;;;0.80;;
16531;SDS011;66872;63.142;14.482;2023-11-19T02:09:24;0.77;;;0.77;;
16531;SDS011;66872;63.142;14.482;2023-11-19T02:11:50;0.77;;;0.77;;
16531;SDS011;66872;63.142;14.482;2023-11-19T02:14:16;0.60;;;0.60;;
16531;SDS011;66872;63.142;14.482;2023-11-19T02:16:42;0.60;;;0.60;;
16531;SDS011;66872;63.142;14.482;2023-11-19T02:19:09;1.00;;;0.93;;
16531;SDS011;66872;63.142;14.482;2023-11-19T02:21:38;0.70;;;0.70;;
16531;SDS011;66872;63.142;14.482;2023-11-19T02:24:04;0.70;;;0.70;;
16531;SDS011;66872;63.142;14.482;2023-11-19T02:26:37;0.60;;;0.60;;
16531;SDS011;66872;63.142;14.482;2023-11-19T02:29:07;0.90;;;0.90;;
16531;SDS011;66872;63.142;14.482;2023-11-19T02:31:33;0.83;;;0.73;;
16531;SDS011;66872;63.142;14.482;2023-11-19T02:34:00;0.80;;;0.80;;
16531;SDS011;66872;63.142;14.482;2023-11-19T02:36:27;0.90;;;0.90;;
16531;SDS011;66872;63.142;14.482;2023-11-19T02:38:53;0.80;;;0.80;;
16531;SDS011;66872;63.142;14.482;2023-11-19T02:41:18;0.60;;;0.60;;
16531;SDS011;66872;63.142;14.482;2023-11-19T02:43:44;0.67;;;0.67;;
16531;SDS011;66872;63.142;14.482;2023-11-19T02:46:10;0.70;;;0.70;;
16531;SDS011;66872;63.142;14.482;2023-11-19T02:48:36;0.70;;;0.70;;
16531;SDS011;66872;63.142;14.482;2023-11-19T02:51:02;0.87;;;0.87;;
16531;SDS011;66872;63.142;14.482;2023-11-19T02:53:34;0.60;;;0.60;;
16531;SDS011;66872;63.142;14.482;2023-11-19T02:56:00;0.77;;;0.70;;
16531;SDS011;66872;63.142;14.482;2023-11-19T02:58:31;0.53;;;0.53;;
16531;SDS011;66872;63.142;14.482;2023-11-19T03:00:57;0.67;;;0.67;;
16531;SDS011;66872;63.142;14.482;2023-11-19T03:03:24;0.73;;;0.73;;
16531;SDS011;66872;63.142;14.482;2023-11-19T03:06:07;0.70;;;0.70;;
16531;SDS011;66872;63.142;14.482;2023-11-19T03:08:35;0.70;;;0.70;;
16531;SDS011;66872;63.142;14.482;2023-11-19T03:11:01;0.70;;;0.70;;
16531;SDS011;66872;63.142;14.482;2023-11-19T03:13:27;0.40;;;0.40;;
16531;SDS011;66872;63.142;14.482;2023-11-19T03:15:52;0.70;;;0.70;;
16531;SDS011;66872;63.142;14.482;2023-11-19T03:18:21;0.60;;;0.60;;
16531;SDS011;66872;63.142;14.482;2023-11-19T03:20:47;0.77;;;0.77;;
16531;SDS011;66872;63.142;14.482;2023-11-19T03:23:13;0.60;;;0.60;;
16531;SDS011;66872;63.142;14.482;2023-11-19T03:25:38;0.70;;;0.70;;
16531;SDS011;66872;63.142;14.482;2023-11-19T03:28:04;0.50;;;0.50;;
16531;SDS011;66872;63.142;14.482;2023-11-19T03:30:30;0.60;;;0.60;;
16531;SDS011;66872;63.142;14.482;2023-11-19T03:32:56;0.57;;;0.57;;
16531;SDS011;66872;63.142;14.482;2023-11-19T03:35:22;0.77;;;0.77;;
16531;SDS011;66872;63.142;14.482;2023-11-19T03:37:49;0.50;;;0.50;;
16531;SDS011;66872;63.142;14.482;2023-11-19T03:40:16;0.67;;;0.67;;
16531;SDS011;66872;63.142;14.482;2023-11-19T03:42:42;0.67;;;0.67;;
16531;SDS011;66872;63.142;14.482;2023-11-19T03:45:09;0.87;;;0.60;;
16531;SDS011;66872;63.142;14.482;2023-11-19T03:47:35;0.63;;;0.63;;
16531;SDS011;66872;63.142;14.482;2023-11-19T03:50:01;0.47;;;0.47;;
16531;SDS011;66872;63.142;14.482;2023-11-19T03:52:27;0.50;;;0.50;;
16531;SDS011;66872;63.142;14.482;2023-11-19T03:54:54;0.73;;;0.73;;
16531;SDS011;66872;63.142;14.482;2023-11-19T03:57:20;0.73;;;0.73;;
16531;SDS011;66872;63.142;14.482;2023-11-19T03:59:46;0.80;;;0.80;;
16531;SDS011;66872;63.142;14.482;2023-11-19T04:02:12;0.80;;;0.80;;
16531;SDS011;66872;63.142;14.482;2023-11-19T04:04:38;0.80;;;0.80;;
16531;SDS011;66872;63.142;14.482;2023-11-19T04:07:04;0.50;;;0.50;;
16531;SDS011;66872;63.142;14.482;2023-11-19T04:09:30;0.60;;;0.60;;
16531;SDS011;66872;63.142;14.482;2023-11-19T04:11:58;0.60;;;0.60;;
16531;SDS011;66872;63.142;14.482;2023-11-19T04:14:25;0.80;;;0.80;;
16531;SDS011;66872;63.142;14.482;2023-11-19T04:16:51;0.50;;;0.50;;
16531;SDS011;66872;63.142;14.482;2023-11-19T04:19:17;0.60;;;0.60;;
16531;SDS011;66872;63.142;14.482;2023-11-19T04:21:43;0.50;;;0.50;;
16531;SDS011;66872;63.142;14.482;2023-11-19T04:24:09;0.70;;;0.70;;
16531;SDS011;66872;63.142;14.482;2023-11-19T04:26:43;0.33;;;0.33;;
16531;SDS011;66872;63.142;14.482;2023-11-19T04:29:11;0.70;;;0.70;;
16531;SDS011;66872;63.142;14.482;2023-11-19T04:31:38;0.50;;;0.50;;
16531;SDS011;66872;63.142;14.482;2023-11-19T04:34:04;0.70;;;0.70;;
16531;SDS011;66872;63.142;14.482;2023-11-19T04:36:31;0.50;;;0.50;;
16531;SDS011;66872;63.142;14.482;2023-11-19T04:38:58;0.57;;;0.57;;
16531;SDS011;66872;63.142;14.482;2023-11-19T04:41:24;0.50;;;0.50;;
16531;SDS011;66872;63.142;14.482;2023-11-19T04:43:51;0.50;;;0.50;;
16531;SDS011;66872;63.142;14.482;2023-11-19T04:46:16;0.57;;;0.57;;
16531;SDS011;66872;63.142;14.482;2023-11-19T04:48:42;0.60;;;0.60;;
16531;SDS011;66872;63.142;14.482;2023-11-19T04:51:08;0.70;;;0.70;;
16531;SDS011;66872;63.142;14.482;2023-11-19T04:53:36;0.40;;;0.40;;
16531;SDS011;66872;63.142;14.482;2023-11-19T04:56:07;0.60;;;0.60;;
16531;SDS011;66872;63.142;14.482;2023-11-19T04:58:36;0.70;;;0.70;;
16531;SDS011;66872;63.142;14.482;2023-11-19T05:01:03;0.60;;;0.60;;
16531;SDS011;66872;63.142;14.482;2023-11-19T05:03:29;0.50;;;0.50;;
16531;SDS011;66872;63.142;14.482;2023-11-19T05:05:56;0.60;;;0.60;;
16531;SDS011;66872;63.142;14.482;2023-11-19T05:08:22;0.57;;;0.57;;
16531;SDS011;66872;63.142;14.482;2023-11-19T05:10:48;0.70;;;0.70;;
16531;SDS011;66872;63.142;14.482;2023-11-19T05:13:14;0.77;;;0.77;;
16531;SDS011;66872;63.142;14.482;2023-11-19T05:15:40;0.57;;;0.57;;
16531;SDS011;66872;63.142;14.482;2023-11-19T05:18:06;0.70;;;0.70;;
16531;SDS011;66872;63.142;14.482;2023-11-19T05:20:32;0.50;;;0.50;;
16531;SDS011;66872;63.142;14.482;2023-11-19T05:22:57;0.50;;;0.50;;
16531;SDS011;66872;63.142;14.482;2023-11-19T05:25:25;0.50;;;0.50;;
16531;SDS011;66872;63.142;14.482;2023-11-19T05:27:51;0.60;;;0.60;;
16531;SDS011;66872;63.142;14.482;2023-11-19T05:30:17;0.50;;;0.50;;
16531;SDS011;66872;63.142;14.482;2023-11-19T05:32:43;0.60;;;0.60;;
16531;SDS011;66872;63.142;14.482;2023-11-19T05:35:09;0.67;;;0.67;;
16531;SDS011;66872;63.142;14.482;2023-11-19T05:37:36;0.57;;;0.57;;
16531;SDS011;66872;63.142;14.482;2023-11-19T05:40:01;0.50;;;0.50;;
16531;SDS011;66872;63.142;14.482;2023-11-19T05:42:29;0.57;;;0.57;;
16531;SDS011;66872;63.142;14.482;2023-11-19T05:44:54;0.60;;;0.60;;
16531;SDS011;66872;63.142;14.482;2023-11-19T05:47:21;0.50;;;0.50;;
16531;SDS011;66872;63.142;14.482;2023-11-19T05:49:46;0.63;;;0.63;;
16531;SDS011;66872;63.142;14.482;2023-11-19T05:52:12;0.40;;;0.40;;
16531;SDS011;66872;63.142;14.482;2023-11-19T05:54:38;0.63;;;0.63;;
16531;SDS011;66872;63.142;14.482;2023-11-19T05:57:07;0.47;;;0.47;;
16531;SDS011;66872;63.142;14.482;2023-11-19T05:59:36;0.67;;;0.67;;
16531;SDS011;66872;63.142;14.482;2023-11-19T06:02:02;0.50;;;0.50;;
16531;SDS011;66872;63.142;14.482;2023-11-19T06:04:28;0.53;;;0.53;;
16531;SDS011;66872;63.142;14.482;2023-11-19T06:06:54;0.53;;;0.53;;
16531;SDS011;66872;63.142;14.482;2023-11-19T06:09:20;0.40;;;0.40;;
16531;SDS011;66872;63.142;14.482;2023-11-19T06:11:48;0.50;;;0.50;;
16531;SDS011;66872;63.142;14.482;2023-11-19T06:14:15;0.50;;;0.50;;
16531;SDS011;66872;63.142;14.482;2023-11-19T06:16:41;0.60;;;0.60;;
16531;SDS011;66872;63.142;14.482;2023-11-19T06:19:07;0.60;;;0.60;;
16531;SDS011;66872;63.142;14.482;2023-11-19T06:21:33;0.43;;;0.43;;
16531;SDS011;66872;63.142;14.482;2023-11-19T06:24:00;0.40;;;0.40;;
16531;SDS011;66872;63.142;14.482;2023-11-19T06:26:26;0.47;;;0.47;;
16531;SDS011;66872;63.142;14.482;2023-11-19T06:28:52;0.57;;;0.57;;
16531;SDS011;66872;63.142;14.482;2023-11-19T06:31:18;0.57;;;0.57;;
16531;SDS011;66872;63.142;14.482;2023-11-19T06:33:43;0.50;;;0.50;;
16531;SDS011;66872;63.142;14.482;2023-11-19T06:36:09;0.60;;;0.60;;
16531;SDS011;66872;63.142;14.482;2023-11-19T06:38:35;0.60;;;0.60;;
16531;SDS011;66872;63.142;14.482;2023-11-19T06:41:01;0.50;;;0.50;;
16531;SDS011;66872;63.142;14.482;2023-11-19T06:43:26;0.50;;;0.50;;
16531;SDS011;66872;63.142;14.482;2023-11-19T06:45:53;0.40;;;0.40;;
16531;SDS011;66872;63.142;14.482;2023-11-19T06:48:19;0.60;;;0.60;;
16531;SDS011;66872;63.142;14.482;2023-11-19T06:50:45;0.67;;;0.67;;
16531;SDS011;66872;63.142;14.482;2023-11-19T06:53:10;0.40;;;0.40;;
16531;SDS011;66872;63.142;14.482;2023-11-19T06:55:36;0.63;;;0.63;;
16531;SDS011;66872;63.142;14.482;2023-11-19T06:58:02;0.50;;;0.50;;
16531;SDS011;66872;63.142;14.482;2023-11-19T07:00:28;0.47;;;0.47;;
16531;SDS011;66872;63.142;14.482;2023-11-19T07:02:54;0.40;;;0.40;;
16531;SDS011;66872;63.142;14.482;2023-11-19T07:05:20;0.60;;;0.60;;
16531;SDS011;66872;63.142;14.482;2023-11-19T07:07:46;0.43;;;0.43;;
16531;SDS011;66872;63.142;14.482;2023-11-19T07:10:12;0.50;;;0.50;;
16531;SDS011;66872;63.142;14.482;2023-11-19T07:12:38;0.40;;;0.40;;
16531;SDS011;66872;63.142;14.482;2023-11-19T07:15:04;0.60;;;0.60;;
16531;SDS011;66872;63.142;14.482;2023-11-19T07:17:30;0.50;;;0.50;;
16531;SDS011;66872;63.142;14.482;2023-11-19T07:19:56;0.40;;;0.40;;
16531;SDS011;66872;63.142;14.482;2023-11-19T07:22:24;0.50;;;0.50;;
16531;SDS011;66872;63.142;14.482;2023-11-19T07:24:50;0.40;;;0.40;;
16531;SDS011;66872;63.142;14.482;2023-11-19T07:27:16;0.40;;;0.40;;
16531;SDS011;66872;63.142;14.482;2023-11-19T07:29:43;0.60;;;0.60;;
16531;SDS011;66872;63.142;14.482;2023-11-19T07:32:09;0.60;;;0.60;;
16531;SDS011;66872;63.142;14.482;2023-11-19T07:34:36;0.50;;;0.50;;
16531;SDS011;66872;63.142;14.482;2023-11-19T07:37:01;0.60;;;0.60;;
16531;SDS011;66872;63.142;14.482;2023-11-19T07:39:31;0.50;;;0.50;;
16531;SDS011;66872;63.142;14.482;2023-11-19T07:41:57;0.53;;;0.53;;
16531;SDS011;66872;63.142;14.482;2023-11-19T07:44:23;0.53;;;0.53;;
16531;SDS011;66872;63.142;14.482;2023-11-19T07:46:49;0.40;;;0.40;;
16531;SDS011;66872;63.142;14.482;2023-11-19T07:49:15;0.50;;;0.50;;
16531;SDS011;66872;63.142;14.482;2023-11-19T07:51:41;0.30;;;0.30;;
16531;SDS011;66872;63.142;14.482;2023-11-19T07:54:07;0.40;;;0.40;;
16531;SDS011;66872;63.142;14.482;2023-11-19T07:56:33;0.50;;;0.50;;
16531;SDS011;66872;63.142;14.482;2023-11-19T07:59:02;0.40;;;0.40;;
16531;SDS011;66872;63.142;14.482;2023-11-19T08:01:28;0.40;;;0.40;;
16531;SDS011;66872;63.142;14.482;2023-11-19T08:03:54;0.50;;;0.50;;
16531;SDS011;66872;63.142;14.482;2023-11-19T08:06:19;0.30;;;0.30;;
16531;SDS011;66872;63.142;14.482;2023-11-19T08:08:46;0.43;;;0.43;;
16531;SDS011;66872;63.142;14.482;2023-11-19T08:11:13;0.40;;;0.40;;
16531;SDS011;66872;63.142;14.482;2023-11-19T08:13:38;0.50;;;0.50;;
16531;SDS011;66872;63.142;14.482;2023-11-19T08:16:04;0.60;;;0.60;;
16531;SDS011;66872;63.142;14.482;2023-11-19T08:18:30;0.53;;;0.53;;
16531;SDS011;66872;63.142;14.482;2023-11-19T08:20:56;0.60;;;0.60;;
16531;SDS011;66872;63.142;14.482;2023-11-19T08:23:23;0.33;;;0.33;;
16531;SDS011;66872;63.142;14.482;2023-11-19T08:25:50;0.40;;;0.40;;
16531;SDS011;66872;63.142;14.482;2023-11-19T08:28:17;0.47;;;0.47;;
16531;SDS011;66872;63.142;14.482;2023-11-19T08:30:42;0.50;;;0.50;;
16531;SDS011;66872;63.142;14.482;2023-11-19T08:33:09;0.40;;;0.40;;
16531;SDS011;66872;63.142;14.482;2023-11-19T08:35:34;0.47;;;0.47;;
16531;SDS011;66872;63.142;14.482;2023-11-19T08:38:00;0.50;;;0.50;;
16531;SDS011;66872;63.142;14.482;2023-11-19T08:40:26;0.43;;;0.43;;
16531;SDS011;66872;63.142;14.482;2023-11-19T08:42:52;0.40;;;0.40;;
16531;SDS011;66872;63.142;14.482;2023-11-19T08:45:18;0.40;;;0.40;;
16531;SDS011;66872;63.142;14.482;2023-11-19T08:47:44;0.70;;;0.70;;
16531;SDS011;66872;63.142;14.482;2023-11-19T08:50:10;0.53;;;0.53;;
16531;SDS011;66872;63.142;14.482;2023-11-19T08:52:36;0.50;;;0.50;;
16531;SDS011;66872;63.142;14.482;2023-11-19T08:55:02;0.50;;;0.50;;
16531;SDS011;66872;63.142;14.482;2023-11-19T08:57:30;0.63;;;0.63;;
16531;SDS011;66872;63.142;14.482;2023-11-19T08:59:56;0.60;;;0.60;;
16531;SDS011;66872;63.142;14.482;2023-11-19T09:02:22;0.50;;;0.50;;
16531;SDS011;66872;63.142;14.482;2023-11-19T09:04:47;0.40;;;0.40;;
16531;SDS011;66872;63.142;14.482;2023-11-19T09:07:13;0.40;;;0.40;;
16531;SDS011;66872;63.142;14.482;2023-11-19T09:09:38;0.60;;;0.60;;
16531;SDS011;66872;63.142;14.482;2023-11-19T09:12:05;0.60;;;0.60;;
16531;SDS011;66872;63.142;14.482;2023-11-19T09:14:31;0.40;;;0.40;;
16531;SDS011;66872;63.142;14.482;2023-11-19T09:16:57;0.50;;;0.50;;
16531;SDS011;66872;63.142;14.482;2023-11-19T09:19:23;0.70;;;0.70;;
16531;SDS011;66872;63.142;14.482;2023-11-19T09:21:49;0.50;;;0.50;;
16531;SDS011;66872;63.142;14.482;2023-11-19T09:24:15;0.50;;;0.50;;
16531;SDS011;66872;63.142;14.482;2023-11-19T09:26:41;0.60;;;0.60;;
16531;SDS011;66872;63.142;14.482;2023-11-19T09:29:09;0.33;;;0.33;;
16531;SDS011;66872;63.142;14.482;2023-11-19T09:31:37;0.40;;;0.40;;
16531;SDS011;66872;63.142;14.482;2023-11-19T09:34:03;0.40;;;0.40;;
16531;SDS011;66872;63.142;14.482;2023-11-19T09:36:29;0.50;;;0.50;;
16531;SDS011;66872;63.142;14.482;2023-11-19T09:38:55;0.40;;;0.40;;
16531;SDS011;66872;63.142;14.482;2023-11-19T09:41:20;0.50;;;0.50;;
16531;SDS011;66872;63.142;14.482;2023-11-19T09:43:46;0.50;;;0.50;;
16531;SDS011;66872;63.142;14.482;2023-11-19T09:46:15;0.40;;;0.40;;
16531;SDS011;66872;63.142;14.482;2023-11-19T09:48:42;0.50;;;0.50;;
16531;SDS011;66872;63.142;14.482;2023-11-19T09:51:08;0.60;;;0.60;;
16531;SDS011;66872;63.142;14.482;2023-11-19T09:53:36;0.60;;;0.60;;
16531;SDS011;66872;63.142;14.482;2023-11-19T09:56:03;0.40;;;0.40;;
16531;SDS011;66872;63.142;14.482;2023-11-19T09:58:29;0.90;;;0.90;;
16531;SDS011;66872;63.142;14.482;2023-11-19T10:00:59;0.50;;;0.50;;
16531;SDS011;66872;63.142;14.482;2023-11-19T10:03:27;0.53;;;0.53;;
16531;SDS011;66872;63.142;14.482;2023-11-19T10:06:03;0.50;;;0.50;;
16531;SDS011;66872;63.142;14.482;2023-11-19T10:08:29;0.60;;;0.60;;
16531;SDS011;66872;63.142;14.482;2023-11-19T10:10:55;0.60;;;0.60;;
16531;SDS011;66872;63.142;14.482;2023-11-19T10:13:25;0.70;;;0.70;;
16531;SDS011;66872;63.142;14.482;2023-11-19T10:15:52;0.70;;;0.70;;
16531;SDS011;66872;63.142;14.482;2023-11-19T10:18:18;0.70;;;0.70;;
16531;SDS011;66872;63.142;14.482;2023-11-19T10:20:49;0.40;;;0.40;;
16531;SDS011;66872;63.142;14.482;2023-11-19T10:23:14;0.50;;;0.50;;
16531;SDS011;66872;63.142;14.482;2023-11-19T10:25:40;0.50;;;0.50;;
16531;SDS011;66872;63.142;14.482;2023-11-19T10:28:06;0.50;;;0.50;;
16531;SDS011;66872;63.142;14.482;2023-11-19T10:30:31;0.60;;;0.60;;
16531;SDS011;66872;63.142;14.482;2023-11-19T10:33:03;0.73;;;0.73;;
16531;SDS011;66872;63.142;14.482;2023-11-19T10:35:31;0.60;;;0.60;;
16531;SDS011;66872;63.142;14.482;2023-11-19T10:38:01;0.47;;;0.47;;
16531;SDS011;66872;63.142;14.482;2023-11-19T10:40:39;0.50;;;0.50;;
16531;SDS011;66872;63.142;14.482;2023-11-19T10:43:05;0.50;;;0.50;;
16531;SDS011;66872;63.142;14.482;2023-11-19T10:45:32;0.50;;;0.50;;
16531;SDS011;66872;63.142;14.482;2023-11-19T10:47:59;0.80;;;0.60;;
16531;SDS011;66872;63.142;14.482;2023-11-19T10:50:26;0.70;;;0.70;;
16531;SDS011;66872;63.142;14.482;2023-11-19T10:52:55;1.93;;;0.70;;
16531;SDS011;66872;63.142;14.482;2023-11-19T10:55:28;3.40;;;0.93;;
16531;SDS011;66872;63.142;14.482;2023-11-19T10:57:59;3.30;;;1.07;;
16531;SDS011;66872;63.142;14.482;2023-11-19T11:00:30;4.70;;;1.20;;
16531;SDS011;66872;63.142;14.482;2023-11-19T11:03:09;2.30;;;1.00;;
16531;SDS011;66872;63.142;14.482;2023-11-19T11:05:39;2.60;;;1.10;;
16531;SDS011;66872;63.142;14.482;2023-11-19T11:08:06;1.83;;;0.80;;
16531;SDS011;66872;63.142;14.482;2023-11-19T11:10:35;3.00;;;1.03;;
16531;SDS011;66872;63.142;14.482;2023-11-19T11:13:07;1.20;;;0.77;;
16531;SDS011;66872;63.142;14.482;2023-11-19T11:15:33;1.37;;;0.80;;
16531;SDS011;66872;63.142;14.482;2023-11-19T11:18:00;0.70;;;0.70;;
16531;SDS011;66872;63.142;14.482;2023-11-19T11:20:28;2.97;;;1.10;;
16531;SDS011;66872;63.142;14.482;2023-11-19T11:25:40;2.20;;;0.90;;
16531;SDS011;66872;63.142;14.482;2023-11-19T11:28:36;3.30;;;1.27;;
16531;SDS011;66872;63.142;14.482;2023-11-19T11:39:41;2.97;;;0.90;;
16531;SDS011;66872;63.142;14.482;2023-11-19T11:45:01;1.53;;;0.90;;
16531;SDS011;66872;63.142;14.482;2023-11-19T11:50:17;1.43;;;0.83;;
16531;SDS011;66872;63.142;14.482;2023-11-19T11:57:53;1.00;;;0.90;;
16531;SDS011;66872;63.142;14.482;2023-11-19T12:03:01;0.60;;;0.60;;
16531;SDS011;66872;63.142;14.482;2023-11-19T12:05:29;1.20;;;1.00;;
16531;SDS011;66872;63.142;14.482;2023-11-19T12:07:55;2.10;;;0.83;;
16531;SDS011;66872;63.142;14.482;2023-11-19T12:10:23;0.97;;;0.80;;
16531;SDS011;66872;63.142;14.482;2023-11-19T12:12:52;1.20;;;0.80;;
16531;SDS011;66872;63.142;14.482;2023-11-19T12:15:18;2.83;;;1.00;;
16531;SDS011;66872;63.142;14.482;2023-11-19T12:17:48;2.30;;;1.33;;
16531;SDS011;66872;63.142;14.482;2023-11-19T12:20:15;2.50;;;0.90;;
16531;SDS011;66872;63.142;14.482;2023-11-19T12:22:45;3.57;;;1.33;;
16531;SDS011;66872;63.142;14.482;2023-11-19T12:25:12;2.90;;;1.00;;
16531;SDS011;66872;63.142;14.482;2023-11-19T12:28:11;2.17;;;1.10;;
16531;SDS011;66872;63.142;14.482;2023-11-19T12:30:30;1.47;;;1.10;;
16531;SDS011;66872;63.142;14.482;2023-11-19T12:32:56;3.60;;;1.03;;
16531;SDS011;66872;63.142;14.482;2023-11-19T12:35:22;1.80;;;1.00;;
16531;SDS011;66872;63.142;14.482;2023-11-19T12:37:51;1.70;;;1.07;;
16531;SDS011;66872;63.142;14.482;2023-11-19T12:40:22;2.70;;;1.20;;
16531;SDS011;66872;63.142;14.482;2023-11-19T12:42:49;2.07;;;1.03;;
16531;SDS011;66872;63.142;14.482;2023-11-19T12:45:16;1.20;;;0.97;;
16531;SDS011;66872;63.142;14.482;2023-11-19T12:47:42;1.33;;;1.03;;
16531;SDS011;66872;63.142;14.482;2023-11-19T12:50:09;2.53;;;1.10;;
16531;SDS011;66872;63.142;14.482;2023-11-19T12:52:35;2.70;;;1.07;;
16531;SDS011;66872;63.142;14.482;2023-11-19T12:55:05;1.53;;;0.80;;
16531;SDS011;66872;63.142;14.482;2023-11-19T12:57:49;1.30;;;1.00;;
16531;SDS011;66872;63.142;14.482;2023-11-19T13:00:18;1.13;;;0.97;;
16531;SDS011;66872;63.142;14.482;2023-11-19T13:02:51;0.90;;;0.80;;
16531;SDS011;66872;63.142;14.482;2023-11-19T13:05:25;1.17;;;1.07;;
16531;SDS011;66872;63.142;14.482;2023-11-19T13:11:13;0.80;;;0.70;;
16531;SDS011;66872;63.142;14.482;2023-11-19T13:13:20;0.93;;;0.83;;
16531;SDS011;66872;63.142;14.482;2023-11-19T13:15:45;1.47;;;0.93;;
16531;SDS011;66872;63.142;14.482;2023-11-19T13:18:12;1.33;;;1.10;;
16531;SDS011;66872;63.142;14.482;2023-11-19T13:20:39;1.57;;;1.10;;
16531;SDS011;66872;63.142;14.482;2023-11-19T13:23:05;3.60;;;1.13;;
16531;SDS011;66872;63.142;14.482;2023-11-19T13:25:35;1.00;;;1.00;;
16531;SDS011;66872;63.142;14.482;2023-11-19T13:28:01;1.20;;;0.80;;
16531;SDS011;66872;63.142;14.482;2023-11-19T13:30:27;2.00;;;0.83;;
16531;SDS011;66872;63.142;14.482;2023-11-19T13:32:54;1.10;;;1.00;;
16531;SDS011;66872;63.142;14.482;2023-11-19T13:35:20;1.90;;;0.90;;
16531;SDS011;66872;63.142;14.482;2023-11-19T13:37:47;1.43;;;0.80;;
16531;SDS011;66872;63.142;14.482;2023-11-19T13:40:13;0.90;;;0.80;;
16531;SDS011;66872;63.142;14.482;2023-11-19T13:42:43;0.80;;;0.80;;
16531;SDS011;66872;63.142;14.482;2023-11-19T13:45:10;1.00;;;0.90;;
16531;SDS011;66872;63.142;14.482;2023-11-19T13:47:41;0.93;;;0.93;;
16531;SDS011;66872;63.142;14.482;2023-11-19T13:50:11;0.60;;;0.60;;
16531;SDS011;66872;63.142;14.482;2023-11-19T13:52:38;1.13;;;0.90;;
16531;SDS011;66872;63.142;14.482;2023-11-19T13:55:05;2.83;;;1.00;;
16531;SDS011;66872;63.142;14.482;2023-11-19T13:57:32;1.17;;;0.93;;
16531;SDS011;66872;63.142;14.482;2023-11-19T13:59:59;1.10;;;1.00;;
16531;SDS011;66872;63.142;14.482;2023-11-19T14:02:26;1.10;;;1.00;;
16531;SDS011;66872;63.142;14.482;2023-11-19T14:04:51;1.03;;;0.90;;
16531;SDS011;66872;63.142;14.482;2023-11-19T14:07:17;1.30;;;1.20;;
16531;SDS011;66872;63.142;14.482;2023-11-19T14:09:43;0.77;;;0.77;;
16531;SDS011;66872;63.142;14.482;2023-11-19T14:12:08;1.00;;;0.80;;
16531;SDS011;66872;63.142;14.482;2023-11-19T14:14:34;1.07;;;0.97;;
16531;SDS011;66872;63.142;14.482;2023-11-19T14:17:03;1.40;;;1.00;;
16531;SDS011;66872;63.142;14.482;2023-11-19T14:19:29;0.83;;;0.83;;
16531;SDS011;66872;63.142;14.482;2023-11-19T14:21:54;1.33;;;0.90;;
16531;SDS011;66872;63.142;14.482;2023-11-19T14:24:20;0.90;;;0.90;;
16531;SDS011;66872;63.142;14.482;2023-11-19T14:26:46;0.83;;;0.83;;
16531;SDS011;66872;63.142;14.482;2023-11-19T14:29:12;1.03;;;0.80;;
16531;SDS011;66872;63.142;14.482;2023-11-19T14:31:38;0.90;;;0.90;;
16531;SDS011;66872;63.142;14.482;2023-11-19T14:34:05;1.13;;;0.80;;
16531;SDS011;66872;63.142;14.482;2023-11-19T14:36:30;1.00;;;0.90;;
16531;SDS011;66872;63.142;14.482;2023-11-19T14:38:56;0.90;;;0.90;;
16531;SDS011;66872;63.142;14.482;2023-11-19T14:41:23;0.87;;;0.80;;
16531;SDS011;66872;63.142;14.482;2023-11-19T14:43:49;1.03;;;0.90;;
16531;SDS011;66872;63.142;14.482;2023-11-19T14:46:15;1.13;;;0.90;;
16531;SDS011;66872;63.142;14.482;2023-11-19T14:48:41;0.90;;;0.90;;
16531;SDS011;66872;63.142;14.482;2023-11-19T14:51:07;1.10;;;1.00;;
16531;SDS011;66872;63.142;14.482;2023-11-19T14:53:33;0.80;;;0.80;;
16531;SDS011;66872;63.142;14.482;2023-11-19T14:55:59;0.80;;;0.80;;
16531;SDS011;66872;63.142;14.482;2023-11-19T14:58:26;1.10;;;1.00;;
16531;SDS011;66872;63.142;14.482;2023-11-19T15:00:52;1.60;;;0.90;;